Catawba, Ohio
Current Conditions -  °F | °C
As of 12:55 AM on Thursday 27 Nov 2014 (Local Time) from KUYF Reporting Station
Overcast Overcast  
Wind Chill: 23°   Ceiling: 3200
Heat Index: 28°   Visibility: 7mi
Dew Point: 27°   Wind: 5mph
Humidity: 93%   Direction: 320°NW
Pressure: 30.04"   Gusts: NA
Location:  40°N, 83.62°W
Report Text: KUYF 270555Z AUTO 32004KT 7SM OVC032 M02/M03 A3004 RMK AO2
Loading
Personal Weather Stations






























Interactive Weather Map New forecast layout! Learn more

10-Day Weather Forecast

Advertisements
Track Severe Weather on mobile